createdAt,value
2022-08-01T00:00:39.797Z,14.40
2022-08-01T00:03:08.958Z,14.80
2022-08-01T00:05:38.054Z,13.40
2022-08-01T00:08:07.894Z,14.20
2022-08-01T00:10:36.983Z,14.20
2022-08-01T00:13:07.039Z,16.00
2022-08-01T00:15:36.284Z,11.80
2022-08-01T00:18:05.372Z,15.00
2022-08-01T00:20:34.676Z,12.20
2022-08-01T00:23:06.144Z,12.40
2022-08-01T00:25:35.319Z,13.20
2022-08-01T00:28:04.657Z,13.20
2022-08-01T00:30:33.869Z,13.00
2022-08-01T00:33:03.324Z,12.40
2022-08-01T00:35:32.524Z,9.60
2022-08-01T00:38:01.744Z,13.60
2022-08-01T00:40:30.940Z,12.60
2022-08-01T00:43:00.017Z,13.20
2022-08-01T00:45:29.110Z,11.20
2022-08-01T00:47:58.305Z,11.00
2022-08-01T00:50:27.792Z,6.60
2022-08-01T00:52:58.907Z,13.60
2022-08-01T00:55:29.904Z,7.80
2022-08-01T00:58:04.735Z,13.40
2022-08-01T01:00:30.998Z,15.20
2022-08-01T01:03:02.152Z,13.20
2022-08-01T01:05:37.287Z,13.60
2022-08-01T01:08:06.433Z,14.00
2022-08-01T01:10:45.046Z,14.60
2022-08-01T01:13:17.064Z,11.00
2022-08-01T01:15:52.048Z,13.40
2022-08-01T01:18:24.116Z,14.00
2022-08-01T01:20:56.041Z,12.80
2022-08-01T01:23:55.602Z,14.40
2022-08-01T01:26:30.310Z,17.80
2022-08-01T01:30:00.132Z,15.00
2022-08-01T01:32:18.661Z,13.60
2022-08-01T01:34:50.234Z,13.00
2022-08-01T01:37:22.501Z,14.80
2022-08-01T01:39:54.352Z,12.80
2022-08-01T01:42:25.398Z,14.80
2022-08-01T01:44:56.242Z,14.20
2022-08-01T01:47:27.077Z,14.40
2022-08-01T01:49:58.755Z,13.40
2022-08-01T01:52:28.815Z,13.40
2022-08-01T01:55:00.808Z,12.40
2022-08-01T01:57:33.392Z,14.20
2022-08-01T02:00:03.487Z,12.60
2022-08-01T02:02:33.182Z,14.40
2022-08-01T02:05:03.227Z,16.40
2022-08-01T02:07:34.723Z,14.20
2022-08-01T02:10:06.572Z,13.60
2022-08-01T02:12:38.289Z,9.80
2022-08-01T02:15:10.470Z,17.80
2022-08-01T02:17:42.534Z,11.40
2022-08-01T02:20:13.118Z,12.80
2022-08-01T02:23:00.598Z,14.80
2022-08-01T02:25:32.885Z,14.20
2022-08-01T02:28:10.896Z,21.00
2022-08-01T02:30:42.937Z,14.60
2022-08-01T02:33:23.607Z,17.40
2022-08-01T02:36:30.325Z,18.20
2022-08-01T02:38:32.951Z,20.20
2022-08-01T02:41:04.981Z,21.00
2022-08-01T02:43:36.475Z,16.20
2022-08-01T02:46:09.246Z,20.60
2022-08-01T02:48:40.839Z,17.20
2022-08-01T02:51:13.178Z,13.20
2022-08-01T02:53:45.006Z,15.60
2022-08-01T02:56:15.674Z,16.40
2022-08-01T02:58:46.584Z,20.20
2022-08-01T03:01:17.828Z,21.40
2022-08-01T03:03:49.032Z,26.00
2022-08-01T03:06:19.394Z,19.20
2022-08-01T03:08:50.556Z,18.40
2022-08-01T03:11:21.080Z,14.80
2022-08-01T03:13:52.840Z,13.60
2022-08-01T03:16:24.511Z,12.20
2022-08-01T03:18:56.178Z,18.20
2022-08-01T03:21:27.520Z,15.40
2022-08-01T03:23:58.759Z,14.20
2022-08-01T03:26:33.490Z,20.00
2022-08-01T03:29:07.099Z,32.00
2022-08-01T03:31:39.440Z,28.80
2022-08-01T03:34:09.685Z,33.20
2022-08-01T03:36:41.768Z,32.20
2022-08-01T03:39:13.769Z,23.80
2022-08-01T03:41:45.883Z,28.00
2022-08-01T03:44:17.948Z,37.40
2022-08-01T03:46:49.792Z,43.60
2022-08-01T03:49:21.903Z,39.00
2022-08-01T03:51:53.373Z,30.60
2022-08-01T03:54:27.540Z,30.80
2022-08-01T03:56:57.986Z,36.80
2022-08-01T03:59:28.495Z,44.40
2022-08-01T04:01:58.822Z,27.20
2022-08-01T04:04:28.709Z,21.40
2022-08-01T04:06:57.972Z,18.60
2022-08-01T04:09:27.127Z,20.20
2022-08-01T04:11:56.335Z,24.20
2022-08-01T04:14:25.654Z,41.40
2022-08-01T04:16:54.929Z,47.75
2022-08-01T04:19:24.737Z,53.75
2022-08-01T04:21:53.952Z,52.25
2022-08-01T04:24:25.815Z,40.00
2022-08-01T04:26:55.987Z,36.25
2022-08-01T04:29:26.900Z,48.75
2022-08-01T04:31:58.236Z,34.80
2022-08-01T04:34:30.391Z,25.80
2022-08-01T04:37:02.131Z,31.80
2022-08-01T04:39:34.097Z,24.80
2022-08-01T04:42:07.565Z,11.60
2022-08-01T04:44:37.013Z,20.40
2022-08-01T04:47:08.365Z,19.80
2022-08-01T04:49:49.040Z,18.20
2022-08-01T04:52:12.675Z,16.80
2022-08-01T04:54:40.332Z,18.60
2022-08-01T04:57:09.869Z,17.80
2022-08-01T04:59:42.114Z,16.40
2022-08-01T05:02:16.736Z,22.20
2022-08-01T05:04:47.225Z,21.40
2022-08-01T05:07:16.993Z,18.20
2022-08-01T05:09:47.708Z,16.80
2022-08-01T05:12:17.219Z,21.60
2022-08-01T05:14:47.215Z,18.80
2022-08-01T05:17:16.430Z,21.20
2022-08-01T05:19:45.726Z,21.60
2022-08-01T05:22:14.936Z,23.80
2022-08-01T05:24:44.333Z,23.40
2022-08-01T05:27:15.608Z,22.20
2022-08-01T05:29:45.504Z,22.40
2022-08-01T05:32:15.096Z,21.80
2022-08-01T05:34:44.317Z,22.20
2022-08-01T05:37:13.700Z,23.00
2022-08-01T05:39:42.901Z,21.80
2022-08-01T05:42:12.220Z,23.80
2022-08-01T05:44:41.392Z,25.80
2022-08-01T05:47:10.585Z,28.40
2022-08-01T05:49:39.742Z,22.60
2022-08-01T05:52:09.314Z,22.20
2022-08-01T05:54:38.897Z,25.20
2022-08-01T05:57:09.716Z,25.80
2022-08-01T05:59:40.232Z,27.80
2022-08-01T06:02:10.035Z,31.40
2022-08-01T06:04:39.489Z,24.60
2022-08-01T06:07:08.630Z,31.80
2022-08-01T06:09:37.775Z,27.80
2022-08-01T06:12:08.181Z,31.20
2022-08-01T06:14:37.525Z,22.20
2022-08-01T06:17:06.703Z,33.20
2022-08-01T06:19:36.328Z,32.80
2022-08-01T06:22:05.812Z,26.80
2022-08-01T06:24:35.518Z,32.60
2022-08-01T06:27:05.518Z,30.20
2022-08-01T06:29:36.245Z,22.60
2022-08-01T06:32:06.308Z,29.20
2022-08-01T06:34:35.612Z,30.80
2022-08-01T06:37:06.825Z,25.60
2022-08-01T06:39:35.677Z,29.80
2022-08-01T06:42:05.272Z,29.80
2022-08-01T06:44:34.658Z,33.40
2022-08-01T06:47:03.835Z,30.60
2022-08-01T06:49:33.086Z,35.40
2022-08-01T06:52:02.802Z,27.40
2022-08-01T06:54:32.141Z,36.00
2022-08-01T06:57:01.242Z,29.00
2022-08-01T06:59:31.319Z,30.20
2022-08-01T07:02:02.333Z,31.00
2022-08-01T07:04:32.104Z,25.80
2022-08-01T07:07:01.533Z,30.80
2022-08-01T07:09:30.918Z,34.20
2022-08-01T07:12:00.218Z,29.80
2022-08-01T07:14:29.406Z,31.60
2022-08-01T07:16:58.628Z,38.00
2022-08-01T07:19:28.732Z,30.00
2022-08-01T07:21:57.927Z,34.20
2022-08-01T07:24:27.326Z,30.40
2022-08-01T07:26:59.009Z,32.20
2022-08-01T07:29:30.238Z,27.40
2022-08-01T07:32:00.210Z,27.60
2022-08-01T07:34:29.474Z,30.60
2022-08-01T07:36:58.557Z,30.60
2022-08-01T07:39:27.739Z,28.80
2022-08-01T07:42:07.383Z,29.20
2022-08-01T07:44:28.142Z,28.00
2022-08-01T07:46:58.483Z,30.40
2022-08-01T07:49:27.926Z,30.00
2022-08-01T07:52:13.680Z,30.40
2022-08-01T07:54:33.825Z,27.60
2022-08-01T07:57:00.317Z,20.40
2022-08-01T07:59:29.517Z,23.80
2022-08-01T08:01:58.849Z,24.00
2022-08-01T08:04:29.418Z,27.20
2022-08-01T08:06:58.543Z,21.00
2022-08-01T08:09:27.763Z,23.40
2022-08-01T08:11:56.942Z,25.60
2022-08-01T08:14:32.560Z,19.20
2022-08-01T08:16:57.220Z,21.20
2022-08-01T08:19:37.842Z,27.00
2022-08-01T08:21:57.969Z,27.00
2022-08-01T08:24:27.846Z,24.80
2022-08-01T08:27:00.033Z,24.40
2022-08-01T08:29:31.119Z,21.40
2022-08-01T08:32:01.827Z,25.40
2022-08-01T08:34:31.301Z,24.20
2022-08-01T08:37:00.898Z,22.00
2022-08-01T08:39:31.350Z,30.40
2022-08-01T08:42:09.511Z,24.60
2022-08-01T08:44:39.973Z,26.00
2022-08-01T08:47:15.893Z,23.60
2022-08-01T08:49:45.826Z,22.00
2022-08-01T08:52:19.331Z,22.60
2022-08-01T08:54:50.842Z,26.60
2022-08-01T08:57:22.849Z,22.20
2022-08-01T08:59:53.734Z,25.80
2022-08-01T09:02:23.742Z,25.40
2022-08-01T09:04:53.626Z,26.00
2022-08-01T09:07:24.180Z,26.00
2022-08-01T09:09:53.558Z,25.60
2022-08-01T09:12:23.300Z,22.40
2022-08-01T09:14:54.124Z,22.00
2022-08-01T09:17:23.802Z,26.80
2022-08-01T09:19:59.231Z,26.40
2022-08-01T09:22:28.988Z,25.80
2022-08-01T09:25:03.783Z,22.00
2022-08-01T09:27:33.738Z,25.20
2022-08-01T09:30:19.656Z,23.80
2022-08-01T09:33:06.414Z,17.40
2022-08-01T09:35:43.772Z,26.20
2022-08-01T09:38:24.969Z,26.20
2022-08-01T09:41:02.938Z,21.00
2022-08-01T09:43:33.211Z,26.60
2022-08-01T09:46:13.436Z,21.60
2022-08-01T09:49:03.526Z,24.40
2022-08-01T09:51:59.372Z,24.20
2022-08-01T09:54:09.925Z,21.80
2022-08-01T09:56:43.446Z,24.20
2022-08-01T09:59:14.156Z,23.20
2022-08-01T10:01:48.431Z,22.20
2022-08-01T10:04:20.015Z,20.00
2022-08-01T10:06:53.464Z,18.40
2022-08-01T10:09:40.336Z,21.20
2022-08-01T10:12:07.515Z,21.60
2022-08-01T10:14:41.081Z,23.00
2022-08-01T10:17:18.576Z,22.60
2022-08-01T10:19:44.806Z,17.40
2022-08-01T10:22:17.651Z,16.40
2022-08-01T10:24:49.177Z,16.20
2022-08-01T10:27:21.510Z,16.80
2022-08-01T10:30:05.631Z,13.80
2022-08-01T10:32:25.935Z,15.20
2022-08-01T10:34:58.404Z,14.00
2022-08-01T10:37:28.314Z,16.20
2022-08-01T10:40:14.443Z,14.80
2022-08-01T10:42:30.214Z,14.40
2022-08-01T10:45:00.954Z,12.00
2022-08-01T10:47:49.914Z,17.60
2022-08-01T10:50:25.936Z,13.00
2022-08-01T10:53:23.407Z,14.80
2022-08-01T10:56:03.886Z,13.80
2022-08-01T10:58:42.619Z,16.60
2022-08-01T11:01:25.745Z,17.00
2022-08-01T11:04:15.609Z,28.60
2022-08-01T11:06:46.999Z,20.20
2022-08-01T11:09:36.826Z,23.40
2022-08-01T11:12:07.121Z,20.20
2022-08-01T11:14:55.101Z,13.60
2022-08-01T11:17:37.670Z,17.00
2022-08-01T11:20:13.738Z,16.00
2022-08-01T11:23:07.114Z,18.60
2022-08-01T11:26:03.898Z,15.40
2022-08-01T11:28:30.142Z,16.40
2022-08-01T11:30:58.295Z,16.20
2022-08-01T11:33:47.099Z,14.80
2022-08-01T11:36:36.962Z,18.80
2022-08-01T11:39:03.873Z,17.20
2022-08-01T11:41:39.320Z,11.80
2022-08-01T11:44:16.712Z,21.40
2022-08-01T11:47:00.649Z,20.80
2022-08-01T11:49:51.640Z,21.20
2022-08-01T11:52:34.605Z,17.20
2022-08-01T11:55:10.425Z,18.80
2022-08-01T11:57:40.579Z,18.40
2022-08-01T12:00:20.147Z,21.20
2022-08-01T12:02:51.153Z,24.60
2022-08-01T12:05:24.870Z,16.20
2022-08-01T12:07:54.594Z,29.40
2022-08-01T12:10:26.390Z,21.60
2022-08-01T12:13:00.938Z,17.20
2022-08-01T12:15:35.741Z,15.60
2022-08-01T12:18:07.496Z,15.60
2022-08-01T12:20:42.845Z,17.60
2022-08-01T12:23:12.316Z,20.40
2022-08-01T12:25:41.998Z,22.80
2022-08-01T12:28:14.041Z,20.20
2022-08-01T12:30:44.188Z,19.40
2022-08-01T12:33:14.993Z,20.80
2022-08-01T12:35:44.198Z,15.40
2022-08-01T12:38:23.954Z,17.80
2022-08-01T12:40:54.835Z,16.80
2022-08-01T12:43:29.559Z,16.80
2022-08-01T12:46:01.291Z,21.00
2022-08-01T12:48:32.579Z,24.60
2022-08-01T12:51:03.503Z,22.00
2022-08-01T12:53:40.202Z,24.00
2022-08-01T12:56:07.933Z,28.40
2022-08-01T12:58:37.211Z,21.60
2022-08-01T13:01:09.128Z,27.60
2022-08-01T13:03:38.958Z,22.80
2022-08-01T13:06:17.200Z,19.40
2022-08-01T13:08:47.981Z,19.00
2022-08-01T13:11:20.175Z,22.20
2022-08-01T13:13:54.080Z,21.60
2022-08-01T13:16:38.487Z,19.40
2022-08-01T13:19:00.959Z,14.20
2022-08-01T13:21:52.305Z,22.60
2022-08-01T13:24:16.170Z,19.60
2022-08-01T13:27:01.830Z,21.80
2022-08-01T13:29:38.308Z,15.80
2022-08-01T13:32:29.421Z,19.20
2022-08-01T13:34:56.176Z,14.60
2022-08-01T13:37:25.260Z,15.00
2022-08-01T13:39:54.363Z,21.00
2022-08-01T13:42:24.010Z,13.80
2022-08-01T13:44:53.168Z,15.80
2022-08-01T13:47:31.171Z,17.20
2022-08-01T13:49:53.283Z,15.40
2022-08-01T13:52:22.525Z,19.00
2022-08-01T13:54:51.970Z,13.60
2022-08-01T13:57:21.896Z,11.40
2022-08-01T13:59:51.224Z,17.00
2022-08-01T14:02:20.541Z,15.40
2022-08-01T14:04:50.147Z,11.00
2022-08-01T14:07:20.061Z,15.00
2022-08-01T14:10:17.847Z,18.40
2022-08-01T14:12:21.440Z,8.60
2022-08-01T14:14:52.252Z,15.00
2022-08-01T14:17:21.457Z,13.20
2022-08-01T14:19:51.288Z,1.20
2022-08-01T14:22:20.964Z,19.60
2022-08-01T14:24:50.477Z,16.00
2022-08-01T14:27:19.510Z,19.20
2022-08-01T14:30:04.362Z,12.20
2022-08-01T14:32:19.537Z,14.20
2022-08-01T14:34:50.331Z,10.60
2022-08-01T14:37:19.567Z,14.60
2022-08-01T14:39:54.592Z,12.40
2022-08-01T14:42:20.793Z,12.60
2022-08-01T14:44:50.247Z,13.20
2022-08-01T14:47:22.036Z,14.00
2022-08-01T14:49:51.130Z,12.40
2022-08-01T14:52:20.964Z,16.20
2022-08-01T14:54:50.180Z,15.60
2022-08-01T14:57:19.875Z,22.80
2022-08-01T14:59:49.194Z,6.00
2022-08-01T15:02:18.363Z,17.00
2022-08-01T15:04:51.060Z,10.40
2022-08-01T15:07:20.763Z,14.80
2022-08-01T15:09:49.961Z,13.40
2022-08-01T15:12:19.210Z,11.20
2022-08-01T15:14:52.756Z,11.60
2022-08-01T15:17:33.729Z,15.20
2022-08-01T15:20:06.005Z,13.00
2022-08-01T15:22:36.050Z,13.80
2022-08-01T15:25:06.404Z,13.20
2022-08-01T15:27:35.581Z,15.00
2022-08-01T15:30:05.952Z,11.40
2022-08-01T15:32:35.177Z,13.40
2022-08-01T15:35:04.465Z,11.00
2022-08-01T15:37:33.589Z,12.60
2022-08-01T15:40:04.681Z,11.40
2022-08-01T15:42:33.808Z,15.40
2022-08-01T15:45:02.993Z,16.40
2022-08-01T15:47:33.219Z,16.40
2022-08-01T15:50:03.335Z,16.80
2022-08-01T15:52:32.544Z,14.40
2022-08-01T15:55:01.646Z,14.40
2022-08-01T15:57:30.843Z,14.00
2022-08-01T16:00:00.085Z,17.20
2022-08-01T16:02:29.223Z,17.20
2022-08-01T16:04:58.431Z,17.60
2022-08-01T16:07:27.618Z,16.80
2022-08-01T16:09:56.845Z,15.80
2022-08-01T16:12:26.019Z,17.60
2022-08-01T16:14:55.215Z,15.40
2022-08-01T16:17:24.405Z,16.20
2022-08-01T16:19:53.569Z,20.20
2022-08-01T16:22:22.727Z,12.40
2022-08-01T16:24:52.020Z,13.20
2022-08-01T16:27:24.353Z,16.80
2022-08-01T16:29:52.135Z,13.00
2022-08-01T16:32:25.328Z,11.00
2022-08-01T16:34:52.176Z,14.80
2022-08-01T16:37:21.368Z,13.60
2022-08-01T16:39:50.563Z,6.80
2022-08-01T16:42:19.775Z,10.40
2022-08-01T16:44:48.971Z,10.40
2022-08-01T16:47:19.395Z,6.60
2022-08-01T16:49:49.018Z,8.80
2022-08-01T16:52:18.714Z,11.40
2022-08-01T16:54:47.840Z,12.00
2022-08-01T16:57:17.134Z,13.80
2022-08-01T16:59:46.508Z,10.60
2022-08-01T17:02:15.776Z,12.20
2022-08-01T17:04:45.456Z,12.40
2022-08-01T17:07:14.865Z,12.80
2022-08-01T17:09:44.014Z,10.80
2022-08-01T17:12:14.032Z,10.40
2022-08-01T17:14:44.382Z,10.60
2022-08-01T17:17:15.195Z,10.00
2022-08-01T17:19:44.760Z,8.80
2022-08-01T17:22:14.121Z,11.40
2022-08-01T17:24:43.421Z,3.60
2022-08-01T17:27:13.718Z,11.80
2022-08-01T17:29:43.919Z,10.00
2022-08-01T17:32:14.680Z,10.00
2022-08-01T17:34:44.361Z,11.00
2022-08-01T17:37:13.801Z,7.20
2022-08-01T17:39:43.005Z,8.80
2022-08-01T17:42:12.856Z,8.40
2022-08-01T17:44:42.098Z,10.00
2022-08-01T17:47:28.774Z,10.00
2022-08-01T17:49:54.914Z,11.00
2022-08-01T17:52:14.509Z,11.00
2022-08-01T17:54:44.218Z,9.60
2022-08-01T17:57:13.415Z,11.40
2022-08-01T17:59:44.013Z,11.00
2022-08-01T18:02:13.555Z,10.80
2022-08-01T18:04:44.380Z,12.00
2022-08-01T18:07:14.188Z,14.60
2022-08-01T18:09:45.976Z,12.00
2022-08-01T18:12:16.183Z,11.60
2022-08-01T18:14:47.690Z,4.00
2022-08-01T18:17:18.588Z,9.00
2022-08-01T18:19:47.673Z,8.60
2022-08-01T18:22:31.654Z,10.40
2022-08-01T18:24:47.595Z,6.00
2022-08-01T18:27:16.831Z,10.20
2022-08-01T18:29:48.285Z,13.00
2022-08-01T18:32:17.112Z,11.80
2022-08-01T18:34:46.232Z,13.60
2022-08-01T18:37:16.829Z,12.20
2022-08-01T18:39:48.312Z,12.40
2022-08-01T18:42:18.063Z,13.20
2022-08-01T18:44:47.351Z,14.40
2022-08-01T18:47:16.732Z,17.40
2022-08-01T18:49:45.923Z,18.00
2022-08-01T18:52:15.136Z,17.80
2022-08-01T18:54:45.668Z,19.20
2022-08-01T18:57:14.859Z,17.80
2022-08-01T18:59:45.683Z,14.40
2022-08-01T19:02:15.249Z,14.40
2022-08-01T19:04:44.713Z,17.40
2022-08-01T19:07:14.106Z,15.00
2022-08-01T19:09:43.310Z,14.80
2022-08-01T19:12:12.517Z,16.40
2022-08-01T19:14:41.622Z,15.20
2022-08-01T19:17:10.791Z,17.40
2022-08-01T19:19:39.986Z,17.40
2022-08-01T19:22:09.144Z,14.20
2022-08-01T19:24:38.515Z,19.80
2022-08-01T19:27:10.006Z,16.00
2022-08-01T19:29:40.392Z,14.00
2022-08-01T19:32:13.310Z,14.20
2022-08-01T19:34:45.417Z,22.40
2022-08-01T19:37:15.155Z,16.40
2022-08-01T19:39:46.066Z,16.80
2022-08-01T19:42:15.462Z,17.20
2022-08-01T19:44:46.094Z,17.40
2022-08-01T19:47:17.060Z,11.80
2022-08-01T19:49:46.575Z,15.80
2022-08-01T19:52:18.709Z,17.00
2022-08-01T19:54:50.884Z,17.00
2022-08-01T19:57:20.378Z,14.40
2022-08-01T19:59:52.459Z,19.20
2022-08-01T20:02:21.648Z,14.00
2022-08-01T20:04:51.291Z,19.60
2022-08-01T20:07:20.389Z,14.80
2022-08-01T20:09:54.315Z,15.60
2022-08-01T20:12:25.129Z,17.60
2022-08-01T20:14:54.681Z,14.20
2022-08-01T20:17:24.922Z,10.80
2022-08-01T20:19:54.107Z,14.40
2022-08-01T20:22:27.105Z,17.00
2022-08-01T20:24:59.368Z,17.00
2022-08-01T20:27:30.669Z,21.00
2022-08-01T20:30:01.977Z,19.60
2022-08-01T20:32:34.258Z,15.20
2022-08-01T20:35:05.482Z,18.40
2022-08-01T20:38:06.731Z,21.80
2022-08-01T20:40:12.393Z,18.00
2022-08-01T20:42:42.530Z,17.00
2022-08-01T20:45:18.098Z,15.60
2022-08-01T20:47:45.301Z,20.80
2022-08-01T20:50:53.130Z,40.60
2022-08-01T20:53:03.655Z,18.60
2022-08-01T20:55:47.885Z,17.20
2022-08-01T20:58:22.978Z,18.60
2022-08-01T21:00:55.507Z,15.60
2022-08-01T21:03:27.068Z,11.00
2022-08-01T21:05:59.279Z,14.20
2022-08-01T21:08:34.360Z,11.60
2022-08-01T21:11:07.545Z,18.20
2022-08-01T21:13:46.499Z,14.20
2022-08-01T21:16:23.928Z,15.60
2022-08-01T21:19:18.972Z,15.20
2022-08-01T21:21:34.867Z,14.60
2022-08-01T21:24:09.893Z,15.80
2022-08-01T21:26:42.253Z,12.40
2022-08-01T21:29:13.200Z,13.00
2022-08-01T21:31:43.227Z,10.20
2022-08-01T21:34:12.749Z,17.20
2022-08-01T21:36:44.707Z,16.80
2022-08-01T21:39:14.846Z,16.60
2022-08-01T21:42:01.359Z,16.00
2022-08-01T21:44:17.833Z,14.40
2022-08-01T21:46:48.444Z,10.60
2022-08-01T21:49:17.764Z,10.40
2022-08-01T21:51:51.681Z,14.80
2022-08-01T21:54:32.853Z,16.40
2022-08-01T21:57:05.429Z,12.00
2022-08-01T21:59:58.488Z,11.40
2022-08-01T22:02:45.498Z,12.00
2022-08-01T22:05:15.412Z,15.80
2022-08-01T22:07:50.308Z,3.00
2022-08-01T22:10:21.297Z,13.60
2022-08-01T22:12:50.422Z,13.20
2022-08-01T22:15:22.655Z,13.40
2022-08-01T22:17:52.358Z,13.40
2022-08-01T22:20:27.309Z,14.80
2022-08-01T22:22:57.590Z,12.40
2022-08-01T22:25:28.643Z,10.60
2022-08-01T22:28:05.788Z,16.00
2022-08-01T22:30:29.447Z,13.60
2022-08-01T22:33:07.133Z,10.20
2022-08-01T22:35:31.466Z,12.20
2022-08-01T22:38:01.595Z,11.40
2022-08-01T22:40:34.283Z,11.80
2022-08-01T22:43:06.666Z,10.40
2022-08-01T22:45:38.617Z,9.60
2022-08-01T22:48:31.475Z,9.20
2022-08-01T22:51:04.871Z,13.00
2022-08-01T22:53:52.001Z,7.00
2022-08-01T22:56:23.285Z,13.20
2022-08-01T22:58:55.747Z,9.40
2022-08-01T23:01:27.703Z,8.40
2022-08-01T23:03:58.947Z,11.00
2022-08-01T23:06:33.955Z,9.80
2022-08-01T23:09:05.047Z,9.20
2022-08-01T23:11:36.286Z,10.80
2022-08-01T23:14:05.967Z,9.20
2022-08-01T23:16:36.938Z,9.40
2022-08-01T23:19:06.391Z,7.80
2022-08-01T23:21:41.354Z,8.80
2022-08-01T23:24:09.532Z,9.00
2022-08-01T23:26:39.528Z,10.00
2022-08-01T23:29:09.747Z,7.00
2022-08-01T23:32:00.560Z,3.80
2022-08-01T23:34:09.697Z,5.00
2022-08-01T23:36:39.484Z,5.40
2022-08-01T23:39:08.719Z,7.40
2022-08-01T23:41:57.242Z,6.80
2022-08-01T23:44:10.354Z,4.60
2022-08-01T23:46:39.860Z,3.20
2022-08-01T23:49:09.160Z,1.00
2022-08-01T23:51:38.367Z,3.00
2022-08-01T23:54:07.887Z,4.80
2022-08-01T23:56:37.284Z,2.60
2022-08-01T23:59:06.496Z,3.40
